createdAt,value
2018-02-03T00:02:58.310Z,4.19
2018-02-03T00:12:58.592Z,4.34
2018-02-03T00:22:58.357Z,4.1
2018-02-03T00:32:58.470Z,4.07
2018-02-03T00:42:58.418Z,4.06
2018-02-03T00:52:58.374Z,3.97
2018-02-03T01:02:58.338Z,4.08
2018-02-03T01:12:58.640Z,4.03
2018-02-03T01:22:58.414Z,3.97
2018-02-03T01:32:58.415Z,3.76
2018-02-03T01:42:58.406Z,3.49
2018-02-03T01:52:58.445Z,3.61
2018-02-03T02:02:58.411Z,3.5
2018-02-03T02:12:58.627Z,3.47
2018-02-03T02:22:58.462Z,3.1
2018-02-03T02:32:58.405Z,3.02
2018-02-03T02:42:58.462Z,2.91
2018-02-03T02:52:58.415Z,3.1
2018-02-03T03:02:58.538Z,3
2018-02-03T03:12:58.448Z,3.09
2018-02-03T03:22:58.536Z,3.03
2018-02-03T03:32:58.478Z,3.03
2018-02-03T03:42:58.512Z,2.98
2018-02-03T03:52:58.496Z,3.03
2018-02-03T04:02:58.480Z,3.09
2018-02-03T04:12:58.505Z,3.05
2018-02-03T04:22:58.467Z,2.97
2018-02-03T04:32:58.534Z,2.98
2018-02-03T04:42:58.481Z,3.05
2018-02-03T04:52:58.582Z,3
2018-02-03T05:02:58.539Z,2.97
2018-02-03T05:12:58.567Z,2.84
2018-02-03T05:22:58.545Z,2.89
2018-02-03T05:32:58.601Z,2.79
2018-02-03T05:42:58.590Z,2.79
2018-02-03T05:52:58.542Z,2.87
2018-02-03T06:02:58.582Z,2.79
2018-02-03T06:12:58.581Z,2.63
2018-02-03T06:22:58.641Z,2.41
2018-02-03T06:32:58.581Z,2.49
2018-02-03T06:42:58.618Z,2.55
2018-02-03T06:52:58.597Z,2.77
2018-02-03T07:02:58.674Z,2.91
2018-02-03T07:12:58.611Z,3.1
2018-02-03T07:22:58.671Z,3.18
2018-02-03T07:32:58.667Z,3.23
2018-02-03T07:42:58.593Z,3.42
2018-02-03T07:52:58.702Z,3.44
2018-02-03T08:02:58.632Z,3.61
2018-02-03T08:12:58.712Z,3.62
2018-02-03T08:22:58.664Z,3.7
2018-02-03T08:32:58.745Z,3.8
2018-02-03T08:42:58.687Z,3.88
2018-02-03T08:52:58.773Z,3.85
2018-02-03T09:02:58.714Z,4.03
2018-02-03T09:12:58.712Z,4.33
2018-02-03T09:22:58.738Z,4.8
2018-02-03T09:32:58.802Z,4.76
2018-02-03T09:42:58.761Z,5.04
2018-02-03T09:52:58.691Z,5.13
2018-02-03T10:02:58.812Z,5.37
2018-02-03T10:12:58.725Z,5.7
2018-02-03T10:22:58.825Z,5.82
2018-02-03T10:32:58.859Z,6.06
2018-02-03T10:43:00.030Z,6.13
2018-02-03T10:52:58.985Z,5.86
2018-02-03T11:02:59.266Z,5.64
2018-02-03T11:12:58.909Z,5.74
2018-02-03T11:22:58.878Z,5.86
2018-02-03T11:33:02.156Z,6.35
2018-02-03T11:42:58.883Z,6.21
2018-02-03T11:52:58.952Z,6.32
2018-02-03T12:02:58.936Z,6.8
2018-02-03T12:12:58.881Z,6.94
2018-02-03T12:22:58.955Z,6.62
2018-02-03T12:32:58.966Z,6.68
2018-02-03T12:42:58.943Z,6.54
2018-02-03T12:52:58.858Z,6.48
2018-02-03T13:02:59.192Z,6.69
2018-02-03T13:12:58.908Z,6.68
2018-02-03T13:22:58.972Z,6.71
2018-02-03T13:32:58.952Z,6.63
2018-02-03T13:42:59.037Z,6.46
2018-02-03T13:52:58.995Z,6.43
2018-02-03T14:02:58.962Z,6.41
2018-02-03T14:12:58.928Z,6.51
2018-02-03T14:22:59.023Z,6.43
2018-02-03T14:32:59.072Z,6.43
2018-02-03T14:42:59.055Z,6.46
2018-02-03T14:52:58.968Z,6.33
2018-02-03T15:02:59.026Z,6.14
2018-02-03T15:12:59.010Z,6.11
2018-02-03T15:22:59.080Z,6.03
2018-02-03T15:32:59.142Z,5.82
2018-02-03T15:42:59.124Z,5.77
2018-02-03T15:52:59.181Z,5.78
2018-02-03T16:02:59.151Z,5.74
2018-02-03T16:12:59.300Z,5.6
2018-02-03T16:22:59.110Z,5.53
2018-02-03T16:32:59.096Z,5.46
2018-02-03T16:42:59.035Z,5.35
2018-02-03T16:52:59.116Z,5.28
2018-02-03T17:02:59.130Z,5.14
2018-02-03T17:12:59.157Z,5.02
2018-02-03T17:22:59.093Z,4.86
2018-02-03T17:32:59.128Z,4.83
2018-02-03T17:42:59.394Z,4.62
2018-02-03T17:52:59.268Z,4.26
2018-02-03T18:02:59.191Z,3.9
2018-02-03T18:12:59.211Z,3.72
2018-02-03T18:22:59.167Z,3.65
2018-02-03T18:32:59.504Z,3.39
2018-02-03T18:42:59.152Z,2.69
2018-02-03T18:52:59.211Z,2.34
2018-02-03T19:02:59.161Z,2.31
2018-02-03T19:13:01.356Z,2.15
2018-02-03T19:22:59.142Z,1.82
2018-02-03T19:32:59.373Z,1.5
2018-02-03T19:42:59.200Z,1.4
2018-02-03T19:52:59.272Z,1.37
2018-02-03T20:02:59.234Z,1.44
2018-02-03T20:12:59.179Z,1.39
2018-02-03T20:22:59.277Z,1.42
2018-02-03T20:32:59.248Z,1.34
2018-02-03T20:42:59.314Z,1.32
2018-02-03T20:52:59.274Z,1.25
2018-02-03T21:02:59.317Z,0.97
2018-02-03T21:12:59.249Z,1.06
2018-02-03T21:22:59.338Z,1.01
2018-02-03T21:32:59.299Z,0.92
2018-02-03T21:42:59.324Z,0.97
2018-02-03T21:52:59.350Z,0.82
2018-02-03T22:02:59.269Z,0.97
2018-02-03T22:12:59.313Z,0.89
2018-02-03T22:22:59.314Z,1.04
2018-02-03T22:32:59.447Z,0.89
2018-02-03T22:42:59.350Z,1.01
2018-02-03T22:52:59.370Z,0.94
2018-02-03T23:02:59.376Z,0.79
2018-02-03T23:12:59.426Z,0.86
2018-02-03T23:22:59.390Z,0.83
2018-02-03T23:32:59.452Z,0.78
2018-02-03T23:42:59.405Z,0.83
2018-02-03T23:52:59.386Z,0.71
